sensor_id;sensor_type;location;lat;lon;timestamp;P1;durP1;ratioP1;P2;durP2;ratioP2
21030;SDS011;61072;47.808;7.636;2023-02-13T00:00:08;23.67;;;13.73;;
21030;SDS011;61072;47.808;7.636;2023-02-13T00:02:37;22.90;;;13.15;;
21030;SDS011;61072;47.808;7.636;2023-02-13T00:05:04;27.40;;;14.65;;
21030;SDS011;61072;47.808;7.636;2023-02-13T00:07:31;26.42;;;13.82;;
21030;SDS011;61072;47.808;7.636;2023-02-13T00:09:58;26.15;;;13.38;;
21030;SDS011;61072;47.808;7.636;2023-02-13T00:12:24;23.52;;;13.65;;
21030;SDS011;61072;47.808;7.636;2023-02-13T00:14:51;25.77;;;13.82;;
21030;SDS011;61072;47.808;7.636;2023-02-13T00:17:19;25.77;;;13.43;;
21030;SDS011;61072;47.808;7.636;2023-02-13T00:19:45;25.90;;;14.30;;
21030;SDS011;61072;47.808;7.636;2023-02-13T00:22:12;23.52;;;13.63;;
21030;SDS011;61072;47.808;7.636;2023-02-13T00:24:41;25.35;;;14.93;;
21030;SDS011;61072;47.808;7.636;2023-02-13T00:27:08;26.52;;;14.65;;
21030;SDS011;61072;47.808;7.636;2023-02-13T00:29:35;25.42;;;14.25;;
21030;SDS011;61072;47.808;7.636;2023-02-13T00:32:02;22.98;;;13.63;;
21030;SDS011;61072;47.808;7.636;2023-02-13T00:34:29;22.40;;;12.88;;
21030;SDS011;61072;47.808;7.636;2023-02-13T00:36:55;21.50;;;12.30;;
21030;SDS011;61072;47.808;7.636;2023-02-13T00:39:22;21.70;;;13.02;;
21030;SDS011;61072;47.808;7.636;2023-02-13T00:41:49;23.63;;;13.27;;
21030;SDS011;61072;47.808;7.636;2023-02-13T00:44:16;27.23;;;15.63;;
21030;SDS011;61072;47.808;7.636;2023-02-13T00:46:42;23.15;;;14.23;;
21030;SDS011;61072;47.808;7.636;2023-02-13T00:49:09;21.77;;;13.77;;
21030;SDS011;61072;47.808;7.636;2023-02-13T00:51:36;24.48;;;14.45;;
21030;SDS011;61072;47.808;7.636;2023-02-13T00:54:02;23.85;;;13.10;;
21030;SDS011;61072;47.808;7.636;2023-02-13T00:56:29;23.33;;;13.73;;
21030;SDS011;61072;47.808;7.636;2023-02-13T00:58:56;20.80;;;13.23;;
21030;SDS011;61072;47.808;7.636;2023-02-13T01:01:23;23.88;;;14.18;;
21030;SDS011;61072;47.808;7.636;2023-02-13T01:03:49;20.10;;;12.48;;
21030;SDS011;61072;47.808;7.636;2023-02-13T01:06:16;22.42;;;13.60;;
21030;SDS011;61072;47.808;7.636;2023-02-13T01:08:43;22.50;;;14.23;;
21030;SDS011;61072;47.808;7.636;2023-02-13T01:11:09;23.15;;;12.95;;
21030;SDS011;61072;47.808;7.636;2023-02-13T01:13:36;22.55;;;13.40;;
21030;SDS011;61072;47.808;7.636;2023-02-13T01:16:03;24.75;;;13.55;;
21030;SDS011;61072;47.808;7.636;2023-02-13T01:18:30;20.25;;;12.57;;
21030;SDS011;61072;47.808;7.636;2023-02-13T01:20:59;20.48;;;12.93;;
21030;SDS011;61072;47.808;7.636;2023-02-13T01:23:31;24.48;;;12.82;;
21030;SDS011;61072;47.808;7.636;2023-02-13T01:25:59;25.95;;;13.70;;
21030;SDS011;61072;47.808;7.636;2023-02-13T01:28:28;22.93;;;13.47;;
21030;SDS011;61072;47.808;7.636;2023-02-13T01:30:55;23.30;;;13.90;;
21030;SDS011;61072;47.808;7.636;2023-02-13T01:33:25;22.38;;;12.90;;
21030;SDS011;61072;47.808;7.636;2023-02-13T01:35:52;27.48;;;15.20;;
21030;SDS011;61072;47.808;7.636;2023-02-13T01:38:19;22.35;;;13.55;;
21030;SDS011;61072;47.808;7.636;2023-02-13T01:40:46;21.15;;;13.00;;
21030;SDS011;61072;47.808;7.636;2023-02-13T01:43:17;27.40;;;14.52;;
21030;SDS011;61072;47.808;7.636;2023-02-13T01:45:45;31.00;;;15.13;;
21030;SDS011;61072;47.808;7.636;2023-02-13T01:48:20;26.77;;;15.85;;
21030;SDS011;61072;47.808;7.636;2023-02-13T01:53:28;21.02;;;12.45;;
21030;SDS011;61072;47.808;7.636;2023-02-13T01:55:59;26.17;;;14.68;;
21030;SDS011;61072;47.808;7.636;2023-02-13T01:58:31;26.02;;;15.23;;
21030;SDS011;61072;47.808;7.636;2023-02-13T02:01:00;31.40;;;16.90;;
21030;SDS011;61072;47.808;7.636;2023-02-13T02:03:34;26.33;;;14.95;;
21030;SDS011;61072;47.808;7.636;2023-02-13T02:06:24;30.52;;;15.88;;
21030;SDS011;61072;47.808;7.636;2023-02-13T02:08:53;29.02;;;16.10;;
21030;SDS011;61072;47.808;7.636;2023-02-13T02:14:13;29.95;;;16.77;;
21030;SDS011;61072;47.808;7.636;2023-02-13T02:16:40;29.70;;;16.77;;
21030;SDS011;61072;47.808;7.636;2023-02-13T02:19:11;30.00;;;16.92;;
21030;SDS011;61072;47.808;7.636;2023-02-13T02:22:29;29.05;;;15.73;;
21030;SDS011;61072;47.808;7.636;2023-02-13T02:25:30;25.38;;;15.32;;
21030;SDS011;61072;47.808;7.636;2023-02-13T02:31:00;31.02;;;17.00;;
21030;SDS011;61072;47.808;7.636;2023-02-13T02:33:53;32.13;;;18.60;;
21030;SDS011;61072;47.808;7.636;2023-02-13T02:42:19;32.47;;;18.55;;
21030;SDS011;61072;47.808;7.636;2023-02-13T02:44:58;31.90;;;17.70;;
21030;SDS011;61072;47.808;7.636;2023-02-13T02:47:37;31.85;;;17.58;;
21030;SDS011;61072;47.808;7.636;2023-02-13T02:53:11;30.65;;;17.27;;
21030;SDS011;61072;47.808;7.636;2023-02-13T02:59:03;30.38;;;17.33;;
21030;SDS011;61072;47.808;7.636;2023-02-13T03:01:52;38.75;;;21.25;;
21030;SDS011;61072;47.808;7.636;2023-02-13T03:04:39;37.08;;;19.83;;
21030;SDS011;61072;47.808;7.636;2023-02-13T03:07:28;37.85;;;21.13;;
21030;SDS011;61072;47.808;7.636;2023-02-13T03:09:56;36.42;;;18.77;;
21030;SDS011;61072;47.808;7.636;2023-02-13T03:15:52;36.00;;;19.67;;
21030;SDS011;61072;47.808;7.636;2023-02-13T03:18:42;32.33;;;18.38;;
21030;SDS011;61072;47.808;7.636;2023-02-13T03:24:31;34.50;;;19.17;;
21030;SDS011;61072;47.808;7.636;2023-02-13T03:27:08;35.25;;;17.85;;
21030;SDS011;61072;47.808;7.636;2023-02-13T03:30:00;35.45;;;18.70;;
21030;SDS011;61072;47.808;7.636;2023-02-13T03:32:42;37.50;;;19.65;;
21030;SDS011;61072;47.808;7.636;2023-02-13T03:35:52;38.72;;;21.27;;
21030;SDS011;61072;47.808;7.636;2023-02-13T03:39:03;37.33;;;19.42;;
21030;SDS011;61072;47.808;7.636;2023-02-13T03:44:53;33.05;;;18.33;;
21030;SDS011;61072;47.808;7.636;2023-02-13T03:47:36;31.80;;;18.63;;
21030;SDS011;61072;47.808;7.636;2023-02-13T03:50:04;32.47;;;18.70;;
21030;SDS011;61072;47.808;7.636;2023-02-13T03:55:08;35.10;;;18.70;;
21030;SDS011;61072;47.808;7.636;2023-02-13T03:58:07;31.50;;;19.05;;
21030;SDS011;61072;47.808;7.636;2023-02-13T04:00:58;30.40;;;18.60;;
21030;SDS011;61072;47.808;7.636;2023-02-13T04:03:28;33.85;;;19.70;;
21030;SDS011;61072;47.808;7.636;2023-02-13T04:06:02;35.42;;;20.50;;
21030;SDS011;61072;47.808;7.636;2023-02-13T04:08:31;37.28;;;20.33;;
21030;SDS011;61072;47.808;7.636;2023-02-13T04:11:03;38.17;;;20.75;;
21030;SDS011;61072;47.808;7.636;2023-02-13T04:13:47;38.45;;;20.60;;
21030;SDS011;61072;47.808;7.636;2023-02-13T04:16:20;34.83;;;18.77;;
21030;SDS011;61072;47.808;7.636;2023-02-13T04:18:57;35.40;;;18.60;;
21030;SDS011;61072;47.808;7.636;2023-02-13T04:21:26;33.60;;;18.48;;
21030;SDS011;61072;47.808;7.636;2023-02-13T04:23:52;36.95;;;19.38;;
21030;SDS011;61072;47.808;7.636;2023-02-13T04:26:20;30.27;;;17.52;;
21030;SDS011;61072;47.808;7.636;2023-02-13T04:28:48;36.60;;;17.50;;
21030;SDS011;61072;47.808;7.636;2023-02-13T04:31:15;29.85;;;17.45;;
21030;SDS011;61072;47.808;7.636;2023-02-13T04:33:42;32.30;;;17.80;;
21030;SDS011;61072;47.808;7.636;2023-02-13T04:36:08;30.77;;;17.50;;
21030;SDS011;61072;47.808;7.636;2023-02-13T04:38:35;33.05;;;18.30;;
21030;SDS011;61072;47.808;7.636;2023-02-13T04:41:02;32.92;;;17.40;;
21030;SDS011;61072;47.808;7.636;2023-02-13T04:43:28;30.80;;;18.38;;
21030;SDS011;61072;47.808;7.636;2023-02-13T04:45:55;30.23;;;17.05;;
21030;SDS011;61072;47.808;7.636;2023-02-13T04:48:22;30.70;;;16.25;;
21030;SDS011;61072;47.808;7.636;2023-02-13T04:50:49;28.38;;;15.70;;
21030;SDS011;61072;47.808;7.636;2023-02-13T04:53:15;27.42;;;15.80;;
21030;SDS011;61072;47.808;7.636;2023-02-13T04:55:42;29.58;;;16.65;;
21030;SDS011;61072;47.808;7.636;2023-02-13T04:58:08;30.63;;;16.02;;
21030;SDS011;61072;47.808;7.636;2023-02-13T05:00:35;31.92;;;16.50;;
21030;SDS011;61072;47.808;7.636;2023-02-13T05:03:03;30.95;;;18.08;;
21030;SDS011;61072;47.808;7.636;2023-02-13T05:05:31;30.50;;;17.38;;
21030;SDS011;61072;47.808;7.636;2023-02-13T05:07:58;33.35;;;17.35;;
21030;SDS011;61072;47.808;7.636;2023-02-13T05:10:24;33.83;;;18.05;;
21030;SDS011;61072;47.808;7.636;2023-02-13T05:12:51;30.52;;;17.25;;
21030;SDS011;61072;47.808;7.636;2023-02-13T05:15:19;32.80;;;15.85;;
21030;SDS011;61072;47.808;7.636;2023-02-13T05:17:45;28.08;;;16.23;;
21030;SDS011;61072;47.808;7.636;2023-02-13T05:20:13;30.17;;;15.73;;
21030;SDS011;61072;47.808;7.636;2023-02-13T05:22:46;26.85;;;16.33;;
21030;SDS011;61072;47.808;7.636;2023-02-13T05:25:34;31.77;;;16.75;;
21030;SDS011;61072;47.808;7.636;2023-02-13T05:28:01;30.27;;;16.80;;
21030;SDS011;61072;47.808;7.636;2023-02-13T05:30:29;30.52;;;17.77;;
21030;SDS011;61072;47.808;7.636;2023-02-13T05:32:56;33.20;;;16.95;;
21030;SDS011;61072;47.808;7.636;2023-02-13T05:35:23;38.25;;;17.95;;
21030;SDS011;61072;47.808;7.636;2023-02-13T05:37:50;32.42;;;17.85;;
21030;SDS011;61072;47.808;7.636;2023-02-13T05:40:17;32.83;;;17.45;;
21030;SDS011;61072;47.808;7.636;2023-02-13T05:42:44;33.92;;;17.95;;
21030;SDS011;61072;47.808;7.636;2023-02-13T05:45:10;37.28;;;18.48;;
21030;SDS011;61072;47.808;7.636;2023-02-13T05:47:37;33.13;;;18.17;;
21030;SDS011;61072;47.808;7.636;2023-02-13T05:50:04;34.22;;;18.95;;
21030;SDS011;61072;47.808;7.636;2023-02-13T05:52:31;32.95;;;18.15;;
21030;SDS011;61072;47.808;7.636;2023-02-13T05:54:58;31.67;;;17.90;;
21030;SDS011;61072;47.808;7.636;2023-02-13T05:57:25;30.92;;;17.30;;
21030;SDS011;61072;47.808;7.636;2023-02-13T05:59:52;34.13;;;18.17;;
21030;SDS011;61072;47.808;7.636;2023-02-13T06:02:18;28.25;;;16.00;;
21030;SDS011;61072;47.808;7.636;2023-02-13T06:04:45;28.88;;;17.95;;
21030;SDS011;61072;47.808;7.636;2023-02-13T06:07:12;29.25;;;16.08;;
21030;SDS011;61072;47.808;7.636;2023-02-13T06:09:39;31.20;;;17.02;;
21030;SDS011;61072;47.808;7.636;2023-02-13T06:12:05;28.00;;;16.75;;
21030;SDS011;61072;47.808;7.636;2023-02-13T06:14:32;28.02;;;16.88;;
21030;SDS011;61072;47.808;7.636;2023-02-13T06:16:59;28.20;;;18.67;;
21030;SDS011;61072;47.808;7.636;2023-02-13T06:19:26;30.20;;;16.80;;
21030;SDS011;61072;47.808;7.636;2023-02-13T06:21:53;27.35;;;15.93;;
21030;SDS011;61072;47.808;7.636;2023-02-13T06:24:20;27.77;;;16.80;;
21030;SDS011;61072;47.808;7.636;2023-02-13T06:26:46;21.42;;;14.45;;
21030;SDS011;61072;47.808;7.636;2023-02-13T06:29:13;26.70;;;15.55;;
21030;SDS011;61072;47.808;7.636;2023-02-13T06:31:39;29.02;;;16.33;;
21030;SDS011;61072;47.808;7.636;2023-02-13T06:34:06;30.20;;;17.02;;
21030;SDS011;61072;47.808;7.636;2023-02-13T06:36:33;33.30;;;18.67;;
21030;SDS011;61072;47.808;7.636;2023-02-13T06:39:00;29.67;;;18.35;;
21030;SDS011;61072;47.808;7.636;2023-02-13T06:41:26;29.20;;;18.48;;
21030;SDS011;61072;47.808;7.636;2023-02-13T06:43:53;30.88;;;17.70;;
21030;SDS011;61072;47.808;7.636;2023-02-13T06:46:20;34.33;;;20.13;;
21030;SDS011;61072;47.808;7.636;2023-02-13T06:48:47;32.85;;;19.45;;
21030;SDS011;61072;47.808;7.636;2023-02-13T06:51:13;31.48;;;19.60;;
21030;SDS011;61072;47.808;7.636;2023-02-13T06:53:40;35.05;;;20.60;;
21030;SDS011;61072;47.808;7.636;2023-02-13T06:56:08;35.83;;;20.33;;
21030;SDS011;61072;47.808;7.636;2023-02-13T06:58:36;33.13;;;21.15;;
21030;SDS011;61072;47.808;7.636;2023-02-13T07:01:05;38.10;;;22.05;;
21030;SDS011;61072;47.808;7.636;2023-02-13T07:03:32;32.40;;;19.63;;
21030;SDS011;61072;47.808;7.636;2023-02-13T07:05:58;39.47;;;20.85;;
21030;SDS011;61072;47.808;7.636;2023-02-13T07:08:25;36.95;;;20.38;;
21030;SDS011;61072;47.808;7.636;2023-02-13T07:10:52;31.88;;;18.95;;
21030;SDS011;61072;47.808;7.636;2023-02-13T07:13:18;32.50;;;19.70;;
21030;SDS011;61072;47.808;7.636;2023-02-13T07:15:45;36.17;;;20.35;;
21030;SDS011;61072;47.808;7.636;2023-02-13T07:18:12;34.83;;;20.80;;
21030;SDS011;61072;47.808;7.636;2023-02-13T07:20:38;37.13;;;21.98;;
21030;SDS011;61072;47.808;7.636;2023-02-13T07:23:05;33.45;;;20.98;;
21030;SDS011;61072;47.808;7.636;2023-02-13T07:25:33;36.17;;;21.02;;
21030;SDS011;61072;47.808;7.636;2023-02-13T07:28:01;34.15;;;21.25;;
21030;SDS011;61072;47.808;7.636;2023-02-13T07:30:32;38.58;;;21.00;;
21030;SDS011;61072;47.808;7.636;2023-02-13T07:33:00;31.58;;;19.80;;
21030;SDS011;61072;47.808;7.636;2023-02-13T07:35:27;32.83;;;20.67;;
21030;SDS011;61072;47.808;7.636;2023-02-13T07:37:54;39.50;;;21.67;;
21030;SDS011;61072;47.808;7.636;2023-02-13T07:40:21;43.85;;;26.92;;
21030;SDS011;61072;47.808;7.636;2023-02-13T07:42:48;51.50;;;31.00;;
21030;SDS011;61072;47.808;7.636;2023-02-13T07:45:14;38.03;;;23.85;;
21030;SDS011;61072;47.808;7.636;2023-02-13T07:47:41;37.25;;;22.05;;
21030;SDS011;61072;47.808;7.636;2023-02-13T07:50:08;37.65;;;21.77;;
21030;SDS011;61072;47.808;7.636;2023-02-13T07:52:36;38.25;;;22.27;;
21030;SDS011;61072;47.808;7.636;2023-02-13T07:55:03;39.33;;;22.48;;
21030;SDS011;61072;47.808;7.636;2023-02-13T07:57:31;34.65;;;22.42;;
21030;SDS011;61072;47.808;7.636;2023-02-13T07:59:58;36.65;;;21.95;;
21030;SDS011;61072;47.808;7.636;2023-02-13T08:02:25;34.08;;;21.25;;
21030;SDS011;61072;47.808;7.636;2023-02-13T08:04:52;39.20;;;24.60;;
21030;SDS011;61072;47.808;7.636;2023-02-13T08:07:18;39.33;;;22.52;;
21030;SDS011;61072;47.808;7.636;2023-02-13T08:09:45;39.20;;;22.45;;
21030;SDS011;61072;47.808;7.636;2023-02-13T08:12:31;36.92;;;22.15;;
21030;SDS011;61072;47.808;7.636;2023-02-13T08:14:59;37.38;;;21.85;;
21030;SDS011;61072;47.808;7.636;2023-02-13T08:17:26;41.15;;;22.83;;
21030;SDS011;61072;47.808;7.636;2023-02-13T08:19:53;36.50;;;22.40;;
21030;SDS011;61072;47.808;7.636;2023-02-13T08:22:20;33.38;;;21.08;;
21030;SDS011;61072;47.808;7.636;2023-02-13T08:24:47;36.55;;;21.75;;
21030;SDS011;61072;47.808;7.636;2023-02-13T08:27:13;38.35;;;21.73;;
21030;SDS011;61072;47.808;7.636;2023-02-13T08:29:41;35.83;;;21.88;;
21030;SDS011;61072;47.808;7.636;2023-02-13T08:32:07;31.27;;;20.35;;
21030;SDS011;61072;47.808;7.636;2023-02-13T08:34:34;35.42;;;20.33;;
21030;SDS011;61072;47.808;7.636;2023-02-13T08:37:02;33.38;;;21.02;;
21030;SDS011;61072;47.808;7.636;2023-02-13T08:39:29;33.22;;;21.98;;
21030;SDS011;61072;47.808;7.636;2023-02-13T08:41:55;35.05;;;21.75;;
21030;SDS011;61072;47.808;7.636;2023-02-13T08:44:22;31.67;;;19.75;;
21030;SDS011;61072;47.808;7.636;2023-02-13T08:46:49;35.30;;;21.13;;
21030;SDS011;61072;47.808;7.636;2023-02-13T08:49:16;38.30;;;22.67;;
21030;SDS011;61072;47.808;7.636;2023-02-13T08:51:42;41.05;;;23.10;;
21030;SDS011;61072;47.808;7.636;2023-02-13T08:54:09;39.05;;;25.58;;
21030;SDS011;61072;47.808;7.636;2023-02-13T08:56:36;40.60;;;26.42;;
21030;SDS011;61072;47.808;7.636;2023-02-13T08:59:02;39.13;;;25.02;;
21030;SDS011;61072;47.808;7.636;2023-02-13T09:01:29;45.33;;;26.42;;
21030;SDS011;61072;47.808;7.636;2023-02-13T09:03:56;44.65;;;25.65;;
21030;SDS011;61072;47.808;7.636;2023-02-13T09:06:23;41.13;;;24.73;;
21030;SDS011;61072;47.808;7.636;2023-02-13T09:08:51;46.72;;;28.05;;
21030;SDS011;61072;47.808;7.636;2023-02-13T09:11:18;48.10;;;27.77;;
21030;SDS011;61072;47.808;7.636;2023-02-13T09:13:48;56.55;;;30.05;;
21030;SDS011;61072;47.808;7.636;2023-02-13T09:16:19;54.92;;;28.95;;
21030;SDS011;61072;47.808;7.636;2023-02-13T09:18:47;54.42;;;30.40;;
21030;SDS011;61072;47.808;7.636;2023-02-13T09:21:15;53.83;;;31.80;;
21030;SDS011;61072;47.808;7.636;2023-02-13T09:23:42;49.05;;;29.63;;
21030;SDS011;61072;47.808;7.636;2023-02-13T09:26:10;51.28;;;29.20;;
21030;SDS011;61072;47.808;7.636;2023-02-13T09:28:38;59.17;;;29.63;;
21030;SDS011;61072;47.808;7.636;2023-02-13T09:31:10;53.47;;;30.33;;
21030;SDS011;61072;47.808;7.636;2023-02-13T09:36:15;51.78;;;29.67;;
21030;SDS011;61072;47.808;7.636;2023-02-13T09:38:47;50.92;;;28.70;;
21030;SDS011;61072;47.808;7.636;2023-02-13T09:41:19;51.13;;;30.00;;
21030;SDS011;61072;47.808;7.636;2023-02-13T09:46:35;58.22;;;32.47;;
21030;SDS011;61072;47.808;7.636;2023-02-13T09:49:06;50.88;;;29.63;;
21030;SDS011;61072;47.808;7.636;2023-02-13T09:51:38;51.67;;;29.67;;
21030;SDS011;61072;47.808;7.636;2023-02-13T09:54:07;54.13;;;30.38;;
21030;SDS011;61072;47.808;7.636;2023-02-13T09:59:30;54.72;;;31.60;;
21030;SDS011;61072;47.808;7.636;2023-02-13T10:16:59;43.60;;;26.58;;
21030;SDS011;61072;47.808;7.636;2023-02-13T10:19:35;50.88;;;27.00;;
21030;SDS011;61072;47.808;7.636;2023-02-13T10:22:13;51.25;;;28.13;;
21030;SDS011;61072;47.808;7.636;2023-02-13T10:24:45;45.70;;;25.90;;
21030;SDS011;61072;47.808;7.636;2023-02-13T10:29:56;44.40;;;27.40;;
21030;SDS011;61072;47.808;7.636;2023-02-13T10:35:26;45.92;;;26.65;;
21030;SDS011;61072;47.808;7.636;2023-02-13T10:37:56;45.63;;;28.00;;
21030;SDS011;61072;47.808;7.636;2023-02-13T10:40:30;50.67;;;29.45;;
21030;SDS011;61072;47.808;7.636;2023-02-13T10:48:20;52.85;;;30.25;;
21030;SDS011;61072;47.808;7.636;2023-02-13T10:51:03;54.47;;;30.00;;
21030;SDS011;61072;47.808;7.636;2023-02-13T10:53:47;51.83;;;29.20;;
21030;SDS011;61072;47.808;7.636;2023-02-13T10:57:19;55.42;;;27.63;;
21030;SDS011;61072;47.808;7.636;2023-02-13T11:02:27;50.17;;;29.13;;
21030;SDS011;61072;47.808;7.636;2023-02-13T11:04:59;49.13;;;27.75;;
21030;SDS011;61072;47.808;7.636;2023-02-13T11:07:27;49.72;;;27.83;;
21030;SDS011;61072;47.808;7.636;2023-02-13T11:10:02;49.33;;;28.75;;
21030;SDS011;61072;47.808;7.636;2023-02-13T11:12:32;54.72;;;29.70;;
21030;SDS011;61072;47.808;7.636;2023-02-13T11:15:01;52.05;;;30.05;;
21030;SDS011;61072;47.808;7.636;2023-02-13T11:17:33;50.95;;;27.55;;
21030;SDS011;61072;47.808;7.636;2023-02-13T11:22:36;51.67;;;26.77;;
21030;SDS011;61072;47.808;7.636;2023-02-13T11:27:46;53.67;;;28.73;;
21030;SDS011;61072;47.808;7.636;2023-02-13T11:30:28;52.25;;;28.90;;
21030;SDS011;61072;47.808;7.636;2023-02-13T11:33:00;47.67;;;26.75;;
21030;SDS011;61072;47.808;7.636;2023-02-13T11:35:33;53.35;;;27.73;;
21030;SDS011;61072;47.808;7.636;2023-02-13T11:40:41;50.72;;;28.85;;
21030;SDS011;61072;47.808;7.636;2023-02-13T11:43:29;54.25;;;29.05;;
21030;SDS011;61072;47.808;7.636;2023-02-13T11:46:01;47.63;;;27.70;;
21030;SDS011;61072;47.808;7.636;2023-02-13T11:48:29;54.95;;;29.38;;
21030;SDS011;61072;47.808;7.636;2023-02-13T11:50:56;54.22;;;29.80;;
21030;SDS011;61072;47.808;7.636;2023-02-13T11:53:24;52.78;;;28.40;;
21030;SDS011;61072;47.808;7.636;2023-02-13T11:56:03;49.63;;;28.13;;
21030;SDS011;61072;47.808;7.636;2023-02-13T11:58:37;49.53;;;28.23;;
21030;SDS011;61072;47.808;7.636;2023-02-13T12:01:09;45.42;;;27.02;;
21030;SDS011;61072;47.808;7.636;2023-02-13T12:03:55;48.53;;;27.33;;
21030;SDS011;61072;47.808;7.636;2023-02-13T12:06:28;46.40;;;27.80;;
21030;SDS011;61072;47.808;7.636;2023-02-13T12:08:54;50.70;;;28.45;;
21030;SDS011;61072;47.808;7.636;2023-02-13T12:13:52;48.22;;;28.50;;
21030;SDS011;61072;47.808;7.636;2023-02-13T12:16:37;49.00;;;27.33;;
21030;SDS011;61072;47.808;7.636;2023-02-13T12:19:13;48.55;;;27.40;;
21030;SDS011;61072;47.808;7.636;2023-02-13T12:21:58;50.13;;;27.83;;
21030;SDS011;61072;47.808;7.636;2023-02-13T12:27:11;50.80;;;27.70;;
21030;SDS011;61072;47.808;7.636;2023-02-13T12:29:58;43.40;;;27.15;;
21030;SDS011;61072;47.808;7.636;2023-02-13T12:38:44;45.38;;;26.58;;
21030;SDS011;61072;47.808;7.636;2023-02-13T12:44:20;50.97;;;28.02;;
21030;SDS011;61072;47.808;7.636;2023-02-13T12:49:36;44.75;;;26.58;;
21030;SDS011;61072;47.808;7.636;2023-02-13T12:52:19;44.05;;;24.95;;
21030;SDS011;61072;47.808;7.636;2023-02-13T13:00:28;43.40;;;25.45;;
21030;SDS011;61072;47.808;7.636;2023-02-13T13:03:22;41.47;;;24.88;;
21030;SDS011;61072;47.808;7.636;2023-02-13T13:06:09;38.75;;;24.05;;
21030;SDS011;61072;47.808;7.636;2023-02-13T13:11:44;37.83;;;22.88;;
21030;SDS011;61072;47.808;7.636;2023-02-13T13:14:42;44.08;;;25.13;;
21030;SDS011;61072;47.808;7.636;2023-02-13T13:17:34;38.25;;;23.75;;
21030;SDS011;61072;47.808;7.636;2023-02-13T13:20:45;35.15;;;21.60;;
21030;SDS011;61072;47.808;7.636;2023-02-13T13:28:52;38.65;;;23.77;;
21030;SDS011;61072;47.808;7.636;2023-02-13T13:31:21;33.97;;;22.40;;
21030;SDS011;61072;47.808;7.636;2023-02-13T13:33:51;36.05;;;22.77;;
21030;SDS011;61072;47.808;7.636;2023-02-13T13:36:32;35.70;;;22.17;;
21030;SDS011;61072;47.808;7.636;2023-02-13T13:39:05;40.50;;;24.63;;
21030;SDS011;61072;47.808;7.636;2023-02-13T13:41:50;36.60;;;22.63;;
21030;SDS011;61072;47.808;7.636;2023-02-13T13:45:00;31.88;;;21.98;;
21030;SDS011;61072;47.808;7.636;2023-02-13T13:50:49;34.47;;;22.45;;
21030;SDS011;61072;47.808;7.636;2023-02-13T13:53:18;36.45;;;23.05;;
21030;SDS011;61072;47.808;7.636;2023-02-13T13:58:48;36.75;;;22.23;;
21030;SDS011;61072;47.808;7.636;2023-02-13T14:01:22;32.15;;;21.15;;
21030;SDS011;61072;47.808;7.636;2023-02-13T14:03:56;30.33;;;20.13;;
21030;SDS011;61072;47.808;7.636;2023-02-13T14:06:26;28.58;;;19.65;;
21030;SDS011;61072;47.808;7.636;2023-02-13T14:09:35;28.80;;;20.90;;
21030;SDS011;61072;47.808;7.636;2023-02-13T14:15:47;33.72;;;21.50;;
21030;SDS011;61072;47.808;7.636;2023-02-13T14:31:22;29.20;;;19.27;;
21030;SDS011;61072;47.808;7.636;2023-02-13T14:33:59;31.50;;;19.38;;
21030;SDS011;61072;47.808;7.636;2023-02-13T14:36:32;30.25;;;19.73;;
21030;SDS011;61072;47.808;7.636;2023-02-13T14:39:04;28.77;;;19.65;;
21030;SDS011;61072;47.808;7.636;2023-02-13T14:41:55;28.67;;;19.35;;
21030;SDS011;61072;47.808;7.636;2023-02-13T14:44:25;31.05;;;19.83;;
21030;SDS011;61072;47.808;7.636;2023-02-13T14:47:00;32.25;;;20.25;;
21030;SDS011;61072;47.808;7.636;2023-02-13T14:49:32;29.35;;;18.95;;
21030;SDS011;61072;47.808;7.636;2023-02-13T14:52:03;30.67;;;20.88;;
21030;SDS011;61072;47.808;7.636;2023-02-13T14:54:32;27.33;;;19.98;;
21030;SDS011;61072;47.808;7.636;2023-02-13T15:02:11;36.58;;;26.17;;
21030;SDS011;61072;47.808;7.636;2023-02-13T15:05:03;30.92;;;20.52;;
21030;SDS011;61072;47.808;7.636;2023-02-13T15:07:37;29.08;;;20.08;;
21030;SDS011;61072;47.808;7.636;2023-02-13T15:13:20;31.50;;;21.08;;
21030;SDS011;61072;47.808;7.636;2023-02-13T15:15:56;30.98;;;21.50;;
21030;SDS011;61072;47.808;7.636;2023-02-13T15:18:36;30.90;;;20.05;;
21030;SDS011;61072;47.808;7.636;2023-02-13T15:21:20;30.60;;;19.92;;
21030;SDS011;61072;47.808;7.636;2023-02-13T15:23:52;30.40;;;20.10;;
21030;SDS011;61072;47.808;7.636;2023-02-13T15:26:22;30.80;;;19.52;;
21030;SDS011;61072;47.808;7.636;2023-02-13T15:28:57;30.23;;;20.52;;
21030;SDS011;61072;47.808;7.636;2023-02-13T15:31:50;31.40;;;21.17;;
21030;SDS011;61072;47.808;7.636;2023-02-13T15:36:53;29.67;;;20.52;;
21030;SDS011;61072;47.808;7.636;2023-02-13T15:39:25;32.35;;;21.45;;
21030;SDS011;61072;47.808;7.636;2023-02-13T15:42:02;28.58;;;20.65;;
21030;SDS011;61072;47.808;7.636;2023-02-13T15:47:05;34.30;;;20.60;;
21030;SDS011;61072;47.808;7.636;2023-02-13T15:49:37;30.70;;;18.80;;
21030;SDS011;61072;47.808;7.636;2023-02-13T15:52:12;34.17;;;21.52;;
21030;SDS011;61072;47.808;7.636;2023-02-13T15:54:47;34.65;;;22.23;;
21030;SDS011;61072;47.808;7.636;2023-02-13T15:57:16;33.28;;;21.90;;
21030;SDS011;61072;47.808;7.636;2023-02-13T15:59:43;37.05;;;23.42;;
21030;SDS011;61072;47.808;7.636;2023-02-13T16:02:15;36.28;;;23.02;;
21030;SDS011;61072;47.808;7.636;2023-02-13T16:04:47;41.78;;;24.80;;
21030;SDS011;61072;47.808;7.636;2023-02-13T16:07:16;39.97;;;25.77;;
21030;SDS011;61072;47.808;7.636;2023-02-13T16:09:43;37.67;;;25.85;;
21030;SDS011;61072;47.808;7.636;2023-02-13T16:12:22;40.60;;;27.02;;
21030;SDS011;61072;47.808;7.636;2023-02-13T16:14:51;42.05;;;28.20;;
21030;SDS011;61072;47.808;7.636;2023-02-13T16:17:26;42.60;;;28.10;;
21030;SDS011;61072;47.808;7.636;2023-02-13T16:22:46;42.05;;;26.73;;
21030;SDS011;61072;47.808;7.636;2023-02-13T16:27:56;45.05;;;29.20;;
21030;SDS011;61072;47.808;7.636;2023-02-13T16:35:42;43.92;;;27.50;;
21030;SDS011;61072;47.808;7.636;2023-02-13T16:38:23;53.42;;;30.65;;
21030;SDS011;61072;47.808;7.636;2023-02-13T16:40:57;47.10;;;27.70;;
21030;SDS011;61072;47.808;7.636;2023-02-13T16:43:54;46.90;;;29.13;;
21030;SDS011;61072;47.808;7.636;2023-02-13T16:59:48;43.33;;;27.13;;
21030;SDS011;61072;47.808;7.636;2023-02-13T17:02:24;41.63;;;25.38;;
21030;SDS011;61072;47.808;7.636;2023-02-13T17:10:06;36.17;;;22.67;;
21030;SDS011;61072;47.808;7.636;2023-02-13T17:12:34;46.08;;;24.63;;
21030;SDS011;61072;47.808;7.636;2023-02-13T17:15:03;38.47;;;22.40;;
21030;SDS011;61072;47.808;7.636;2023-02-13T17:17:34;34.22;;;20.27;;
21030;SDS011;61072;47.808;7.636;2023-02-13T17:20:01;36.75;;;22.83;;
21030;SDS011;61072;47.808;7.636;2023-02-13T17:22:30;37.38;;;22.42;;
21030;SDS011;61072;47.808;7.636;2023-02-13T17:24:58;44.67;;;20.92;;
21030;SDS011;61072;47.808;7.636;2023-02-13T17:27:26;36.40;;;22.00;;
21030;SDS011;61072;47.808;7.636;2023-02-13T17:29:53;31.90;;;21.77;;
21030;SDS011;61072;47.808;7.636;2023-02-13T17:32:21;34.38;;;21.48;;
21030;SDS011;61072;47.808;7.636;2023-02-13T17:34:49;37.42;;;21.90;;
21030;SDS011;61072;47.808;7.636;2023-02-13T17:37:26;35.17;;;21.77;;
21030;SDS011;61072;47.808;7.636;2023-02-13T17:39:53;30.67;;;20.17;;
21030;SDS011;61072;47.808;7.636;2023-02-13T17:42:24;36.97;;;22.40;;